Ankara, Turkey

4:56 PM EEST on August 27, 2016 (GMT +0300)
Esenboga | | Change Station

Elev 3114 ft 40.13 °N, 33.00 °E | Updated 36 minutes ago

Scattered Clouds
Scattered Clouds
81 °F
Feels Like 80 °F
N
9
Wind Variable Wind from NNW

Today
High -- | Low -- °F
--% Chance of Precip.
Yesterday
High -- | Low -- °F
Precip. -- in
Pressure 30.01 in
Visibility 6.2 miles
Clouds Few 2500 ft
Scattered Clouds 3000 ft
Heat Index 80 °F
Dew Point 54 °F
Humidity 39%
Rainfall 0.00 in
Snow Depth Not available.
6:11 AM 7:27 PM
Waning Crescent, 24% visible
METAR LTAC 271320Z 34008KT 310V010 9999 FEW025CB SCT030 27/12 Q1016 TEMPO -TSRA RMK RWY21L 36007KT 330V030 RWY03L VRB05KT RWY21R 02007KT 320V060
Pressure 30.01 in
Visibility 6.2 miles
Clouds Few 2500 ft
Scattered Clouds 3000 ft
Heat Index 80 °F
Dew Point 54 °F
Humidity 39%
Rainfall 0.00 in
Snow Depth Not available.
6:11 AM 7:27 PM
Waning Crescent, 24% visible
METAR LTAC 271320Z 34008KT 310V010 9999 FEW025CB SCT030 27/12 Q1016 TEMPO -TSRA RMK RWY21L 36007KT 330V030 RWY03L VRB05KT RWY21R 02007KT 320V060

10-Day Weather Forecast

×

Almanac

Astronomy

Aug. 27, 2016 Rise Set
Actual Time
Civil Twilight
Nautical Twilight
Astronomical Twilight
Moon
Length of Visible Light
Length of Day
Tomorrow will be .
, % of the Moon is Illuminated

Today's Extremes

Country Highs Country Lows

Community

WunderPhotos

Upload Photos

1,935,339 photos uploaded!

WunderBlog® & News

Nearby

Air Quality

  Air Quality AQ Index Pollutant
Not available.

Snow Depth

Station Depth Elevation

Earthquake Activity

City Distance Mag. Time & Date
Minimum magnitude displayed is 2.5.

Coastal Water Temperatures

Place Temperature

Stations

Nearby Weather Stations

Station Location Temp. Windchill Dew Point Humidity Wind Precip. Elev Updated Type